createdAt,value
2018-06-22T00:01:40.503Z,13.47
2018-06-22T00:04:09.841Z,11.80
2018-06-22T00:06:38.506Z,11.43
2018-06-22T00:09:08.671Z,11.33
2018-06-22T00:11:37.268Z,11.03
2018-06-22T00:14:06.042Z,10.13
2018-06-22T00:16:35.218Z,10.33
2018-06-22T00:19:03.831Z,10.23
2018-06-22T00:21:32.478Z,10.10
2018-06-22T00:24:01.201Z,10.60
2018-06-22T00:26:29.784Z,10.37
2018-06-22T00:28:58.703Z,10.03
2018-06-22T00:31:27.446Z,9.40
2018-06-22T00:33:56.113Z,10.10
2018-06-22T00:36:24.830Z,10.00
2018-06-22T00:38:53.662Z,10.07
2018-06-22T00:41:22.418Z,9.90
2018-06-22T00:43:51.816Z,10.20
2018-06-22T00:46:20.454Z,9.63
2018-06-22T00:48:49.058Z,10.13
2018-06-22T00:51:17.705Z,11.03
2018-06-22T00:53:57.474Z,11.50
2018-06-22T00:56:26.064Z,11.60
2018-06-22T00:58:54.689Z,11.37
2018-06-22T01:01:23.318Z,10.50
2018-06-22T01:03:51.953Z,11.43
2018-06-22T01:06:20.570Z,11.23
2018-06-22T01:08:49.227Z,11.43
2018-06-22T01:11:18.145Z,12.47
2018-06-22T01:13:46.758Z,11.77
2018-06-22T01:16:15.347Z,11.70
2018-06-22T01:18:43.998Z,11.53
2018-06-22T01:21:12.648Z,11.03
2018-06-22T01:23:41.249Z,10.80
2018-06-22T01:26:09.929Z,9.97
2018-06-22T01:28:38.618Z,10.53
2018-06-22T01:31:07.380Z,10.40
2018-06-22T01:33:35.969Z,10.00
2018-06-22T01:36:04.667Z,11.07
2018-06-22T01:38:33.300Z,10.90
2018-06-22T01:41:02.214Z,12.20
2018-06-22T01:43:30.832Z,11.47
2018-06-22T01:45:59.443Z,11.10
2018-06-22T01:48:28.032Z,10.97
2018-06-22T01:50:56.684Z,10.90
2018-06-22T01:53:25.288Z,11.70
2018-06-22T01:55:54.231Z,11.93
2018-06-22T01:58:22.848Z,12.47
2018-06-22T02:00:51.431Z,12.70
2018-06-22T02:03:20.076Z,12.37
2018-06-22T02:05:48.667Z,11.87
2018-06-22T02:08:17.471Z,13.07
2018-06-22T02:10:46.075Z,12.63
2018-06-22T02:13:14.651Z,13.83
2018-06-22T02:15:43.297Z,14.17
2018-06-22T02:18:11.908Z,13.33
2018-06-22T02:20:41.297Z,13.97
2018-06-22T02:23:09.938Z,13.87
2018-06-22T02:25:38.582Z,13.30
2018-06-22T02:28:07.218Z,13.60
2018-06-22T02:30:35.780Z,12.50
2018-06-22T02:33:04.514Z,13.40
2018-06-22T02:35:33.136Z,13.80
2018-06-22T02:38:01.719Z,14.47
2018-06-22T02:40:30.296Z,14.50
2018-06-22T02:42:58.921Z,13.87
2018-06-22T02:45:27.520Z,13.63
2018-06-22T02:47:56.114Z,14.73
2018-06-22T02:50:24.738Z,13.33
2018-06-22T02:52:53.328Z,13.77
2018-06-22T02:55:21.906Z,12.77
2018-06-22T02:57:50.552Z,14.23
2018-06-22T03:00:19.234Z,13.73
2018-06-22T03:02:48.102Z,14.70
2018-06-22T03:05:16.733Z,15.00
2018-06-22T03:07:45.435Z,14.23
2018-06-22T03:10:14.104Z,14.20
2018-06-22T03:12:42.719Z,13.50
2018-06-22T03:15:11.383Z,13.20
2018-06-22T03:17:39.926Z,13.03
2018-06-22T03:20:08.822Z,13.27
2018-06-22T03:22:37.460Z,14.03
2018-06-22T03:25:06.415Z,12.97
2018-06-22T03:27:35.045Z,13.50
2018-06-22T03:30:04.323Z,13.03
2018-06-22T03:32:32.986Z,14.10
2018-06-22T03:35:01.860Z,14.37
2018-06-22T03:37:30.484Z,14.83
2018-06-22T03:39:59.367Z,13.97
2018-06-22T03:42:28.004Z,14.90
2018-06-22T03:44:56.614Z,14.40
2018-06-22T03:47:25.212Z,16.10
2018-06-22T03:49:53.831Z,15.77
2018-06-22T03:52:22.459Z,15.90
2018-06-22T03:54:51.018Z,15.73
2018-06-22T03:57:19.700Z,16.63
2018-06-22T03:59:48.288Z,17.17
2018-06-22T04:02:17.282Z,16.97
2018-06-22T04:04:46.012Z,18.33
2018-06-22T04:07:14.659Z,17.17
2018-06-22T04:09:43.433Z,18.33
2018-06-22T04:12:12.116Z,17.83
2018-06-22T04:14:40.686Z,18.17
2018-06-22T04:17:09.551Z,19.80
2018-06-22T04:19:38.143Z,17.97
2018-06-22T04:22:07.116Z,17.43
2018-06-22T04:24:35.714Z,17.00
2018-06-22T04:27:04.367Z,17.23
2018-06-22T04:29:32.959Z,16.43
2018-06-22T04:32:01.553Z,18.97
2018-06-22T04:34:30.442Z,18.63
2018-06-22T04:36:59.340Z,17.30
2018-06-22T04:39:28.592Z,21.37
2018-06-22T04:41:57.444Z,18.53
2018-06-22T04:44:26.102Z,18.33
2018-06-22T04:46:54.862Z,17.83
2018-06-22T04:49:23.515Z,17.53
2018-06-22T04:51:52.163Z,18.33
2018-06-22T04:54:21.051Z,16.57
2018-06-22T04:56:50.050Z,16.50
2018-06-22T04:59:18.697Z,16.60
2018-06-22T05:01:47.328Z,16.67
2018-06-22T05:04:15.963Z,16.83
2018-06-22T05:06:44.562Z,17.93
2018-06-22T05:09:13.205Z,17.23
2018-06-22T05:11:42.158Z,19.10
2018-06-22T05:14:10.823Z,17.40
2018-06-22T05:16:39.482Z,18.33
2018-06-22T05:19:08.090Z,18.13
2018-06-22T05:21:36.709Z,18.43
2018-06-22T05:24:05.414Z,19.47
2018-06-22T05:26:34.323Z,19.17
2018-06-22T05:29:02.954Z,17.80
2018-06-22T05:31:31.606Z,19.17
2018-06-22T05:34:00.580Z,19.07
2018-06-22T05:36:29.203Z,20.10
2018-06-22T05:38:57.834Z,19.60
2018-06-22T05:41:26.481Z,18.73
2018-06-22T05:43:55.130Z,19.07
2018-06-22T05:46:23.716Z,17.23
2018-06-22T05:48:52.627Z,18.47
2018-06-22T05:51:21.203Z,20.00
2018-06-22T05:53:49.881Z,19.17
2018-06-22T05:56:18.515Z,20.00
2018-06-22T05:58:47.479Z,19.02
2018-06-22T06:01:16.106Z,18.65
2018-06-22T06:03:44.770Z,19.40
2018-06-22T06:06:13.657Z,20.32
2018-06-22T06:08:42.420Z,19.48
2018-06-22T06:11:11.381Z,19.25
2018-06-22T06:13:40.070Z,18.75
2018-06-22T06:16:08.815Z,18.87
2018-06-22T06:18:37.781Z,19.37
2018-06-22T06:21:07.216Z,18.73
2018-06-22T06:23:35.832Z,19.27
2018-06-22T06:26:04.439Z,19.75
2018-06-22T06:28:33.079Z,20.45
2018-06-22T06:31:01.714Z,18.45
2018-06-22T06:33:31.171Z,18.05
2018-06-22T06:35:59.778Z,18.67
2018-06-22T06:38:28.523Z,18.48
2018-06-22T06:40:57.598Z,17.85
2018-06-22T06:43:26.395Z,17.17
2018-06-22T06:45:55.010Z,16.48
2018-06-22T06:48:23.648Z,14.93
2018-06-22T06:50:52.710Z,15.30
2018-06-22T06:53:21.376Z,15.15
2018-06-22T06:55:49.990Z,15.70
2018-06-22T06:58:18.731Z,14.78
2018-06-22T07:00:48.878Z,14.13
2018-06-22T07:03:17.485Z,14.13
2018-06-22T07:05:46.134Z,14.35
2018-06-22T07:08:14.835Z,14.25
2018-06-22T07:10:43.576Z,13.65
2018-06-22T07:13:12.643Z,14.23
2018-06-22T07:15:42.067Z,14.25
2018-06-22T07:18:11.054Z,13.22
2018-06-22T07:20:39.758Z,13.30
2018-06-22T07:23:09.330Z,13.50
2018-06-22T07:25:38.326Z,14.05
2018-06-22T07:28:07.054Z,14.03
2018-06-22T07:30:35.690Z,13.62
2018-06-22T07:33:04.332Z,13.95
2018-06-22T07:35:33.195Z,14.15
2018-06-22T07:38:01.884Z,13.40
2018-06-22T07:40:30.541Z,14.70
2018-06-22T07:42:59.654Z,13.22
2018-06-22T07:45:28.919Z,13.75
2018-06-22T07:47:57.535Z,14.05
2018-06-22T07:50:26.156Z,14.50
2018-06-22T07:52:55.333Z,13.83
2018-06-22T07:55:23.921Z,13.83
2018-06-22T07:57:52.813Z,13.62
2018-06-22T08:00:21.727Z,14.05
2018-06-22T08:02:50.768Z,13.90
2018-06-22T08:05:19.735Z,14.68
2018-06-22T08:07:48.586Z,12.88
2018-06-22T08:10:17.568Z,14.15
2018-06-22T08:12:46.186Z,13.70
2018-06-22T08:15:15.560Z,13.22
2018-06-22T08:17:44.534Z,13.22
2018-06-22T08:20:13.404Z,13.95
2018-06-22T08:22:42.762Z,12.82
2018-06-22T08:25:11.735Z,13.03
2018-06-22T08:27:41.212Z,14.15
2018-06-22T08:30:10.373Z,14.28
2018-06-22T08:32:39.213Z,14.30
2018-06-22T08:35:07.859Z,13.60
2018-06-22T08:37:36.697Z,14.13
2018-06-22T08:40:05.373Z,13.70
2018-06-22T08:42:34.045Z,13.65
2018-06-22T08:45:02.878Z,13.88
2018-06-22T08:47:31.683Z,14.93
2018-06-22T08:50:00.589Z,13.45
2018-06-22T08:52:29.259Z,13.40
2018-06-22T08:54:57.920Z,13.38
2018-06-22T08:57:26.659Z,13.55
2018-06-22T08:59:55.347Z,12.98
2018-06-22T09:02:24.363Z,13.00
2018-06-22T09:04:53.077Z,13.93
2018-06-22T09:07:22.149Z,13.83
2018-06-22T09:09:51.504Z,14.23
2018-06-22T09:12:20.183Z,13.72
2018-06-22T09:14:49.265Z,13.93
2018-06-22T09:17:18.027Z,13.65
2018-06-22T09:19:47.016Z,15.05
2018-06-22T09:22:15.977Z,13.53
2018-06-22T09:24:44.617Z,13.45
2018-06-22T09:27:14.092Z,13.38
2018-06-22T09:29:42.800Z,13.55
2018-06-22T09:32:12.410Z,14.47
2018-06-22T09:34:41.197Z,13.60
2018-06-22T09:37:10.196Z,13.80
2018-06-22T09:39:38.890Z,14.13
2018-06-22T09:42:08.013Z,14.15
2018-06-22T09:44:37.951Z,14.15
2018-06-22T09:47:07.172Z,13.95
2018-06-22T09:49:35.792Z,13.68
2018-06-22T09:52:05.763Z,14.05
2018-06-22T09:54:34.971Z,13.55
2018-06-22T09:57:04.702Z,13.72
2018-06-22T09:59:33.350Z,12.93
2018-06-22T10:02:01.980Z,12.93
2018-06-22T10:04:30.616Z,13.22
2018-06-22T10:06:59.721Z,13.35
2018-06-22T10:09:28.784Z,13.22
2018-06-22T10:11:58.367Z,13.32
2018-06-22T10:14:27.115Z,13.13
2018-06-22T10:16:56.095Z,13.85
2018-06-22T10:19:24.846Z,14.07
2018-06-22T10:21:53.483Z,13.65
2018-06-22T10:24:22.511Z,14.47
2018-06-22T10:26:51.214Z,14.00
2018-06-22T10:29:20.312Z,13.55
2018-06-22T10:31:48.920Z,13.75
2018-06-22T10:34:17.785Z,14.28
2018-06-22T10:36:46.746Z,14.58
2018-06-22T10:39:15.802Z,13.78
2018-06-22T10:41:44.845Z,13.80
2018-06-22T10:44:13.711Z,13.53
2018-06-22T10:46:42.879Z,12.70
2018-06-22T10:49:11.533Z,12.33
2018-06-22T10:51:40.330Z,12.07
2018-06-22T10:54:08.981Z,12.95
2018-06-22T10:56:37.984Z,12.68
2018-06-22T10:59:07.042Z,13.13
2018-06-22T11:01:36.003Z,13.08
2018-06-22T11:04:04.693Z,12.60
2018-06-22T11:06:33.578Z,13.18
2018-06-22T11:09:02.871Z,12.70
2018-06-22T11:11:31.931Z,12.50
2018-06-22T11:14:00.893Z,12.20
2018-06-22T11:16:29.807Z,11.85
2018-06-22T11:18:58.699Z,12.68
2018-06-22T11:21:27.380Z,12.43
2018-06-22T11:23:56.040Z,13.22
2018-06-22T11:26:24.708Z,13.60
2018-06-22T11:28:53.354Z,11.00
2018-06-22T11:31:22.007Z,9.00
2018-06-22T11:33:50.628Z,8.05
2018-06-22T11:36:19.324Z,7.22
2018-06-22T11:38:47.938Z,7.90
2018-06-22T11:41:16.663Z,7.30
2018-06-22T11:43:45.276Z,6.60
2018-06-22T11:46:13.862Z,8.87
2018-06-22T11:48:42.484Z,8.37
2018-06-22T11:51:11.274Z,9.40
2018-06-22T11:53:40.116Z,12.57
2018-06-22T11:56:09.313Z,12.30
2018-06-22T11:58:38.020Z,12.37
2018-06-22T12:01:06.818Z,14.03
2018-06-22T12:03:35.622Z,14.30
2018-06-22T12:06:04.323Z,12.77
2018-06-22T12:08:33.124Z,11.57
2018-06-22T12:11:01.873Z,15.67
2018-06-22T12:13:30.469Z,16.23
2018-06-22T12:15:59.164Z,16.43
2018-06-22T12:18:27.870Z,16.00
2018-06-22T12:20:56.631Z,20.13
2018-06-22T12:23:25.255Z,20.03
2018-06-22T12:25:53.904Z,20.33
2018-06-22T12:28:22.639Z,14.70
2018-06-22T12:30:52.163Z,15.63
2018-06-22T12:33:21.345Z,15.23
2018-06-22T12:35:50.233Z,16.97
2018-06-22T12:38:18.880Z,15.73
2018-06-22T12:40:47.533Z,14.40
2018-06-22T12:43:16.502Z,15.60
2018-06-22T12:45:45.135Z,17.97
2018-06-22T12:48:14.118Z,16.03
2018-06-22T12:50:43.275Z,15.10
2018-06-22T12:53:11.949Z,15.07
2018-06-22T12:55:40.604Z,16.83
2018-06-22T12:58:09.523Z,18.20
2018-06-22T13:00:38.665Z,15.73
2018-06-22T13:03:07.421Z,15.23
2018-06-22T13:05:36.414Z,15.63
2018-06-22T13:08:05.350Z,15.40
2018-06-22T13:10:34.037Z,14.50
2018-06-22T13:13:02.712Z,15.77
2018-06-22T13:15:31.301Z,14.10
2018-06-22T13:18:00.184Z,10.80
2018-06-22T13:20:29.321Z,11.97
2018-06-22T13:22:58.058Z,12.27
2018-06-22T13:25:26.722Z,12.27
2018-06-22T13:27:55.328Z,13.57
2018-06-22T13:30:24.012Z,12.80
2018-06-22T13:32:52.927Z,13.67
2018-06-22T13:35:21.790Z,14.10
2018-06-22T13:37:50.438Z,14.67
2018-06-22T13:40:19.192Z,12.97
2018-06-22T13:42:48.884Z,11.90
2018-06-22T13:45:17.900Z,13.03
2018-06-22T13:47:49.403Z,11.60
2018-06-22T13:50:17.981Z,10.43
2018-06-22T13:52:46.663Z,9.60
2018-06-22T13:55:15.455Z,10.93
2018-06-22T13:57:44.165Z,12.23
2018-06-22T14:00:13.309Z,14.30
2018-06-22T14:02:42.010Z,13.50
2018-06-22T14:05:15.855Z,13.47
2018-06-22T14:07:44.531Z,13.53
2018-06-22T14:10:13.163Z,11.80
2018-06-22T14:12:41.765Z,12.57
2018-06-22T14:15:10.450Z,12.23
2018-06-22T14:17:39.066Z,11.90
2018-06-22T14:20:07.702Z,13.90
2018-06-22T14:22:36.316Z,14.73
2018-06-22T14:25:05.015Z,13.50
2018-06-22T14:27:33.604Z,13.47
2018-06-22T14:30:02.374Z,13.47
2018-06-22T14:32:31.002Z,12.97
2018-06-22T14:34:59.786Z,10.90
2018-06-22T14:37:28.521Z,11.47
2018-06-22T14:39:57.262Z,11.93
2018-06-22T14:42:25.871Z,11.07
2018-06-22T14:44:54.518Z,11.77
2018-06-22T14:47:23.495Z,12.10
2018-06-22T14:49:52.354Z,10.80
2018-06-22T14:52:21.157Z,10.37
2018-06-22T14:54:55.031Z,11.27
2018-06-22T14:57:28.973Z,12.50
2018-06-22T15:00:02.834Z,11.60
2018-06-22T15:02:36.601Z,10.03
2018-06-22T15:05:10.687Z,12.07
2018-06-22T15:07:44.564Z,11.43
2018-06-22T15:10:13.545Z,11.63
2018-06-22T15:12:42.548Z,15.23
2018-06-22T15:15:11.314Z,12.17
2018-06-22T15:17:45.466Z,11.80
2018-06-22T15:20:14.452Z,11.37
2018-06-22T15:22:43.076Z,11.20
2018-06-22T15:25:12.113Z,11.60
2018-06-22T15:27:40.939Z,12.30
2018-06-22T15:30:09.738Z,12.30
2018-06-22T15:32:38.724Z,14.23
2018-06-22T15:35:12.936Z,13.87
2018-06-22T15:37:47.712Z,12.80
2018-06-22T15:40:21.514Z,12.80
2018-06-22T15:42:55.355Z,10.30
2018-06-22T15:45:29.508Z,9.73
2018-06-22T15:48:03.245Z,9.67
2018-06-22T15:50:37.985Z,7.40
2018-06-22T15:53:12.264Z,6.17
2018-06-22T15:55:43.982Z,6.40
2018-06-22T15:58:13.013Z,6.40
2018-06-22T16:00:41.978Z,6.37
2018-06-22T16:03:16.155Z,6.90
2018-06-22T16:05:44.799Z,6.60
2018-06-22T16:08:13.810Z,6.87
2018-06-22T16:10:43.465Z,6.43
2018-06-22T16:13:17.160Z,6.70
2018-06-22T16:15:51.067Z,7.03
2018-06-22T16:18:25.290Z,6.87
2018-06-22T16:20:58.925Z,7.17
2018-06-22T16:23:41.272Z,6.80
2018-06-22T16:26:15.322Z,6.93
2018-06-22T16:28:44.645Z,7.13
2018-06-22T16:31:13.528Z,7.03
2018-06-22T16:33:56.768Z,7.90
2018-06-22T16:36:26.715Z,7.33
2018-06-22T16:38:55.378Z,7.27
2018-06-22T16:41:24.163Z,7.00
2018-06-22T16:43:53.290Z,7.00
2018-06-22T16:46:21.927Z,7.10
2018-06-22T16:48:50.574Z,6.97
2018-06-22T16:51:19.246Z,7.13
2018-06-22T16:53:47.868Z,6.90
2018-06-22T16:56:18.164Z,7.10
2018-06-22T16:58:46.858Z,7.97
2018-06-22T17:01:15.509Z,7.50
2018-06-22T17:03:44.211Z,7.70
2018-06-22T17:06:12.782Z,8.70
2018-06-22T17:08:46.614Z,7.70
2018-06-22T17:11:20.728Z,7.43
2018-06-22T17:13:54.791Z,7.73
2018-06-22T17:16:28.752Z,7.67
2018-06-22T17:18:58.796Z,8.17
2018-06-22T17:21:27.439Z,9.63
2018-06-22T17:23:56.185Z,10.13
2018-06-22T17:26:24.913Z,10.10
2018-06-22T17:28:53.599Z,10.23
2018-06-22T17:31:22.289Z,9.67
2018-06-22T17:33:51.448Z,10.03
2018-06-22T17:36:20.020Z,9.90
2018-06-22T17:38:48.594Z,10.97
2018-06-22T17:41:17.340Z,10.93
2018-06-22T17:43:45.940Z,11.50
2018-06-22T17:46:14.636Z,11.90
2018-06-22T17:48:43.248Z,12.73
2018-06-22T17:51:11.880Z,13.97
2018-06-22T17:53:40.535Z,11.10
2018-06-22T17:56:09.186Z,10.80
2018-06-22T17:58:38.063Z,10.80
2018-06-22T18:01:11.854Z,11.53
2018-06-22T18:03:45.809Z,12.67
2018-06-22T18:06:19.697Z,10.10
2018-06-22T18:08:48.443Z,9.70
2018-06-22T18:11:22.250Z,9.97
2018-06-22T18:13:50.919Z,9.50
2018-06-22T18:16:19.511Z,10.20
2018-06-22T18:18:48.131Z,11.10
2018-06-22T18:21:16.744Z,10.63
2018-06-22T18:23:45.358Z,10.40
2018-06-22T18:26:14.053Z,9.53
2018-06-22T18:28:42.716Z,10.40
2018-06-22T18:31:11.711Z,10.30
2018-06-22T18:33:40.300Z,10.73
2018-06-22T18:36:09.473Z,12.67
2018-06-22T18:38:38.138Z,9.93
2018-06-22T18:41:06.780Z,11.40
2018-06-22T18:43:41.080Z,9.63
2018-06-22T18:46:09.711Z,11.60
2018-06-22T18:48:38.319Z,11.93
2018-06-22T18:51:07.262Z,11.00
2018-06-22T18:53:41.289Z,11.57
2018-06-22T18:57:16.742Z,11.13
2018-06-22T18:59:52.676Z,10.60
2018-06-22T19:02:26.817Z,10.77
2018-06-22T19:04:56.070Z,11.47
2018-06-22T19:07:25.001Z,11.60
2018-06-22T19:09:53.645Z,12.73
2018-06-22T19:12:22.247Z,13.60
2018-06-22T19:14:50.946Z,13.23
2018-06-22T19:17:19.723Z,12.47
2018-06-22T19:19:48.337Z,12.77
2018-06-22T19:22:17.260Z,15.77
2018-06-22T19:24:46.145Z,14.53
2018-06-22T19:27:14.755Z,12.77
2018-06-22T19:29:43.338Z,13.30
2018-06-22T19:32:12.253Z,12.60
2018-06-22T19:34:46.055Z,13.03
2018-06-22T19:37:14.710Z,12.97
2018-06-22T19:39:43.339Z,13.50
2018-06-22T19:42:12.347Z,13.30
2018-06-22T19:44:46.289Z,14.00
2018-06-22T19:47:20.097Z,12.50
2018-06-22T19:49:54.010Z,13.20
2018-06-22T19:52:27.890Z,13.13
2018-06-22T19:54:56.522Z,15.30
2018-06-22T19:57:25.083Z,17.20
2018-06-22T19:59:53.810Z,13.20
2018-06-22T20:02:22.447Z,14.40
2018-06-22T20:04:51.224Z,13.17
2018-06-22T20:07:19.819Z,14.00
2018-06-22T20:09:48.453Z,13.93
2018-06-22T20:12:17.053Z,13.40
2018-06-22T20:14:45.709Z,14.03
2018-06-22T20:17:14.384Z,12.97
2018-06-22T20:19:43.019Z,13.83
2018-06-22T20:22:11.657Z,13.77
2018-06-22T20:24:45.646Z,13.43
2018-06-22T20:27:14.272Z,16.30
2018-06-22T20:29:42.892Z,14.37
2018-06-22T20:32:14.794Z,12.80
2018-06-22T20:34:49.090Z,9.00
2018-06-22T20:37:23.011Z,8.50
2018-06-22T20:39:56.917Z,5.67
2018-06-22T20:42:30.740Z,5.33
2018-06-22T20:45:04.470Z,4.83
2018-06-22T20:47:38.213Z,4.60
2018-06-22T20:50:11.933Z,4.53
2018-06-22T20:52:40.603Z,4.50
2018-06-22T20:55:09.296Z,4.27
2018-06-22T20:57:37.937Z,3.80
2018-06-22T21:00:07.093Z,3.80
2018-06-22T21:02:35.729Z,3.87
2018-06-22T21:05:04.722Z,3.73
2018-06-22T21:07:33.350Z,3.40
2018-06-22T21:10:02.179Z,3.40
2018-06-22T21:12:40.416Z,3.80
2018-06-22T21:14:59.434Z,3.57
2018-06-22T21:17:28.023Z,4.03
2018-06-22T21:19:56.696Z,4.10
2018-06-22T21:22:25.292Z,3.83
2018-06-22T21:24:53.945Z,3.77
2018-06-22T21:27:27.632Z,3.87
2018-06-22T21:30:01.412Z,4.13
2018-06-22T21:32:35.374Z,4.27
2018-06-22T21:35:09.135Z,3.90
2018-06-22T21:37:43.060Z,5.10
2018-06-22T21:40:11.732Z,4.60
2018-06-22T21:42:40.345Z,4.50
2018-06-22T21:45:08.991Z,4.30
2018-06-22T21:47:37.615Z,4.10
2018-06-22T21:50:06.299Z,4.37
2018-06-22T21:52:34.919Z,4.60
2018-06-22T21:55:03.648Z,4.33
2018-06-22T21:57:32.251Z,4.43
2018-06-22T22:00:00.958Z,5.00
2018-06-22T22:02:29.550Z,4.23
2018-06-22T22:04:58.168Z,4.90
2018-06-22T22:07:26.779Z,4.43
2018-06-22T22:09:55.688Z,4.47
2018-06-22T22:12:24.242Z,4.27
2018-06-22T22:14:53.402Z,4.53
2018-06-22T22:17:22.004Z,4.40
2018-06-22T22:19:50.976Z,4.37
2018-06-22T22:22:19.566Z,4.20
2018-06-22T22:24:48.148Z,4.37
2018-06-22T22:27:16.784Z,4.73
2018-06-22T22:29:45.452Z,5.00
2018-06-22T22:32:14.151Z,5.40
2018-06-22T22:34:42.768Z,4.83
2018-06-22T22:37:11.389Z,6.43
2018-06-22T22:39:39.988Z,6.17
2018-06-22T22:42:08.647Z,6.07
2018-06-22T22:44:37.253Z,6.50
2018-06-22T22:47:06.038Z,6.20
2018-06-22T22:49:34.702Z,6.27
2018-06-22T22:52:03.255Z,6.77
2018-06-22T22:54:31.845Z,6.43
2018-06-22T22:57:00.471Z,6.60
2018-06-22T22:59:29.055Z,7.07
2018-06-22T23:01:57.682Z,6.83
2018-06-22T23:04:26.286Z,7.17
2018-06-22T23:06:54.863Z,6.43
2018-06-22T23:09:23.445Z,6.70
2018-06-22T23:11:52.159Z,6.97
2018-06-22T23:14:20.777Z,6.03
2018-06-22T23:16:49.392Z,7.10
2018-06-22T23:19:17.963Z,6.83
2018-06-22T23:21:46.543Z,6.00
2018-06-22T23:24:15.873Z,5.87
2018-06-22T23:26:44.498Z,6.00
2018-06-22T23:29:13.116Z,5.53
2018-06-22T23:31:41.689Z,5.30
2018-06-22T23:34:10.344Z,5.50
2018-06-22T23:36:38.915Z,5.80
2018-06-22T23:39:09.167Z,5.97
2018-06-22T23:41:37.891Z,5.13
2018-06-22T23:44:06.538Z,5.60
2018-06-22T23:46:35.098Z,5.60
2018-06-22T23:49:03.660Z,5.97
2018-06-22T23:51:32.299Z,6.23
2018-06-22T23:54:00.924Z,6.60
2018-06-22T23:56:29.577Z,6.17
2018-06-22T23:58:58.203Z,6.57
